createdAt,value
2022-09-23T00:01:16.107Z,11.55
2022-09-23T00:03:47.308Z,10.20
2022-09-23T00:06:23.343Z,8.73
2022-09-23T00:08:50.632Z,11.00
2022-09-23T00:11:23.459Z,10.70
2022-09-23T00:13:53.332Z,14.80
2022-09-23T00:16:33.495Z,10.38
2022-09-23T00:19:02.144Z,8.20
2022-09-23T00:21:29.393Z,9.25
2022-09-23T00:23:56.349Z,9.50
2022-09-23T00:26:23.831Z,9.63
2022-09-23T00:28:50.640Z,11.68
2022-09-23T00:31:23.629Z,10.85
2022-09-23T00:34:01.809Z,8.73
2022-09-23T00:36:29.841Z,9.30
2022-09-23T00:38:57.322Z,10.32
2022-09-23T00:41:24.714Z,8.70
2022-09-23T00:43:59.375Z,9.48
2022-09-23T00:46:32.759Z,9.18
2022-09-23T00:49:12.716Z,9.35
2022-09-23T00:51:48.999Z,9.85
2022-09-23T00:54:16.731Z,9.13
2022-09-23T00:56:43.643Z,9.32
2022-09-23T00:59:10.889Z,8.98
2022-09-23T01:01:39.032Z,7.47
2022-09-23T01:04:07.086Z,8.32
2022-09-23T01:06:33.825Z,8.23
2022-09-23T01:09:00.670Z,9.00
2022-09-23T01:11:45.730Z,7.15
2022-09-23T01:14:34.444Z,8.77
2022-09-23T01:17:19.762Z,7.70
2022-09-23T01:19:57.886Z,8.63
2022-09-23T01:22:27.083Z,8.25
2022-09-23T01:25:13.735Z,7.00
2022-09-23T01:27:59.133Z,7.60
2022-09-23T01:30:37.780Z,6.55
2022-09-23T01:33:18.755Z,8.02
2022-09-23T01:36:09.626Z,7.68
2022-09-23T01:38:44.874Z,9.40
2022-09-23T01:41:40.609Z,10.52
2022-09-23T01:44:13.456Z,8.93
2022-09-23T01:47:01.409Z,8.10
2022-09-23T01:49:35.733Z,8.02
2022-09-23T01:52:17.718Z,7.68
2022-09-23T01:54:50.684Z,8.07
2022-09-23T01:57:35.324Z,8.13
2022-09-23T02:00:23.581Z,9.20
2022-09-23T02:02:58.263Z,9.57
2022-09-23T02:05:33.303Z,9.63
2022-09-23T02:08:11.902Z,9.50
2022-09-23T02:10:44.246Z,7.32
2022-09-23T02:13:20.740Z,6.85
2022-09-23T02:15:56.211Z,8.20
2022-09-23T02:18:33.484Z,9.25
2022-09-23T02:21:04.722Z,9.38
2022-09-23T02:23:42.752Z,8.65
2022-09-23T02:26:45.839Z,9.10
2022-09-23T02:29:33.850Z,7.80
2022-09-23T02:32:15.958Z,8.20
2022-09-23T02:35:04.189Z,7.55
2022-09-23T02:37:51.407Z,9.35
2022-09-23T02:40:47.270Z,6.28
2022-09-23T02:43:41.188Z,7.20
2022-09-23T02:46:08.225Z,8.18
2022-09-23T02:48:56.956Z,7.03
2022-09-23T02:51:29.300Z,7.45
2022-09-23T02:53:58.506Z,7.00
2022-09-23T02:56:25.228Z,6.72
2022-09-23T02:58:54.384Z,8.18
2022-09-23T03:01:45.263Z,8.73
2022-09-23T03:04:33.872Z,7.35
2022-09-23T03:07:17.616Z,10.10
2022-09-23T03:09:52.446Z,8.27
2022-09-23T03:12:53.067Z,8.60
2022-09-23T03:15:43.080Z,8.85
2022-09-23T03:18:18.202Z,7.93
2022-09-23T03:21:02.184Z,7.57
2022-09-23T03:23:38.001Z,7.35
2022-09-23T03:26:13.583Z,8.50
2022-09-23T03:28:43.871Z,9.93
2022-09-23T03:31:13.098Z,9.15
2022-09-23T03:33:43.530Z,8.57
2022-09-23T03:36:43.819Z,7.47
2022-09-23T03:39:15.159Z,11.32
2022-09-23T03:41:55.177Z,9.05
2022-09-23T03:44:21.995Z,7.78
2022-09-23T03:46:51.721Z,9.38
2022-09-23T03:49:30.194Z,8.43
2022-09-23T03:51:56.943Z,8.38
2022-09-23T03:54:23.457Z,9.00
2022-09-23T03:56:49.915Z,9.00
2022-09-23T03:59:16.836Z,9.00
2022-09-23T04:01:44.380Z,7.50
2022-09-23T04:04:10.902Z,8.43
2022-09-23T04:06:37.593Z,9.77
2022-09-23T04:09:04.486Z,8.27
2022-09-23T04:11:31.420Z,7.10
2022-09-23T04:14:00.112Z,7.75
2022-09-23T04:16:27.333Z,8.05
2022-09-23T04:18:54.215Z,7.45
2022-09-23T04:21:20.980Z,8.63
2022-09-23T04:23:48.159Z,6.93
2022-09-23T04:26:15.359Z,7.15
2022-09-23T04:28:42.154Z,8.27
2022-09-23T04:31:10.052Z,7.22
2022-09-23T04:33:37.765Z,7.88
2022-09-23T04:36:05.194Z,6.68
2022-09-23T04:38:31.892Z,7.10
2022-09-23T04:40:59.050Z,9.85
2022-09-23T04:43:26.111Z,8.68
2022-09-23T04:46:01.454Z,6.53
2022-09-23T04:48:29.400Z,6.97
2022-09-23T04:51:03.819Z,10.02
2022-09-23T04:53:31.183Z,8.35
2022-09-23T04:56:02.694Z,7.53
2022-09-23T04:58:29.677Z,6.63
2022-09-23T05:01:01.713Z,27.73
2022-09-23T05:03:54.055Z,8.10
2022-09-23T05:06:21.605Z,11.15
2022-09-23T05:08:54.823Z,8.48
2022-09-23T05:11:22.503Z,9.50
2022-09-23T05:13:59.105Z,10.65
2022-09-23T05:16:27.409Z,8.35
2022-09-23T05:18:54.518Z,9.52
2022-09-23T05:21:27.470Z,10.27
2022-09-23T05:23:59.006Z,9.52
2022-09-23T05:26:28.338Z,10.40
2022-09-23T05:28:55.780Z,9.07
2022-09-23T05:31:25.300Z,9.40
2022-09-23T05:34:03.905Z,9.07
2022-09-23T05:36:37.573Z,9.98
2022-09-23T05:39:06.227Z,9.80
2022-09-23T05:41:34.347Z,9.70
2022-09-23T05:44:01.856Z,9.55
2022-09-23T05:46:33.224Z,9.05
2022-09-23T05:49:03.038Z,10.55
2022-09-23T05:51:40.206Z,8.25
2022-09-23T05:54:15.009Z,8.80
2022-09-23T05:56:41.988Z,29.77
2022-09-23T05:59:09.104Z,8.23
2022-09-23T06:01:39.541Z,9.43
2022-09-23T06:04:12.917Z,11.20
2022-09-23T06:06:42.421Z,10.90
2022-09-23T06:09:14.677Z,8.68
2022-09-23T06:11:42.416Z,9.50
2022-09-23T06:14:13.014Z,8.63
2022-09-23T06:16:40.538Z,7.72
2022-09-23T06:19:08.435Z,9.18
2022-09-23T06:21:39.960Z,7.82
2022-09-23T06:24:09.257Z,8.07
2022-09-23T06:26:37.865Z,9.20
2022-09-23T06:29:11.510Z,8.50
2022-09-23T06:31:41.199Z,8.18
2022-09-23T06:34:13.260Z,8.98
2022-09-23T06:36:46.184Z,12.20
2022-09-23T06:39:14.956Z,11.30
2022-09-23T06:41:42.081Z,7.80
2022-09-23T06:44:08.932Z,8.48
2022-09-23T06:46:46.697Z,8.93
2022-09-23T06:49:21.887Z,12.98
2022-09-23T06:51:49.293Z,9.75
2022-09-23T06:54:16.435Z,8.23
2022-09-23T06:56:45.107Z,8.13
2022-09-23T06:59:13.205Z,9.23
2022-09-23T07:01:40.275Z,9.23
2022-09-23T07:04:08.026Z,7.70
2022-09-23T07:06:34.783Z,9.05
2022-09-23T07:09:01.703Z,7.47
2022-09-23T07:11:29.786Z,7.47
2022-09-23T07:14:00.169Z,7.07
2022-09-23T07:19:08.300Z,9.32
2022-09-23T07:25:07.907Z,8.43
2022-09-23T07:27:35.375Z,6.55
2022-09-23T07:30:02.424Z,5.43
2022-09-23T07:32:49.325Z,7.50
2022-09-23T07:35:29.854Z,5.47
2022-09-23T07:37:56.803Z,6.13
2022-09-23T07:40:26.516Z,6.50
2022-09-23T07:42:54.488Z,6.80
2022-09-23T07:45:22.288Z,6.28
2022-09-23T07:47:50.362Z,6.78
2022-09-23T07:50:20.474Z,6.13
2022-09-23T07:52:47.697Z,6.85
2022-09-23T07:55:20.810Z,6.50
2022-09-23T07:57:47.941Z,9.45
2022-09-23T08:00:15.163Z,6.50
2022-09-23T08:02:42.050Z,6.25
2022-09-23T08:05:11.717Z,6.40
2022-09-23T08:07:38.497Z,6.30
2022-09-23T08:10:05.735Z,5.80
2022-09-23T08:12:35.569Z,4.78
2022-09-23T08:15:03.180Z,4.40
2022-09-23T08:17:34.331Z,4.82
2022-09-23T08:20:01.773Z,5.03
2022-09-23T08:22:28.611Z,4.78
2022-09-23T08:24:56.717Z,5.72
2022-09-23T08:27:26.910Z,4.60
2022-09-23T08:29:54.926Z,7.78
2022-09-23T08:32:24.935Z,5.35
2022-09-23T08:34:51.807Z,5.30
2022-09-23T08:37:18.655Z,6.63
2022-09-23T08:39:45.726Z,4.30
2022-09-23T08:42:22.384Z,4.80
2022-09-23T08:44:57.344Z,4.68
2022-09-23T08:47:31.661Z,5.43
2022-09-23T08:50:09.182Z,4.07
2022-09-23T08:53:05.824Z,5.97
2022-09-23T08:58:38.137Z,5.70
2022-09-23T09:04:45.305Z,7.40
2022-09-23T09:07:37.867Z,4.88
2022-09-23T09:10:18.963Z,5.35
2022-09-23T09:13:08.084Z,4.90
2022-09-23T09:16:16.084Z,5.68
2022-09-23T09:19:15.886Z,4.72
2022-09-23T09:21:46.490Z,4.30
2022-09-23T09:24:19.956Z,4.55
2022-09-23T09:26:46.726Z,4.68
2022-09-23T09:29:41.619Z,4.63
2022-09-23T09:32:39.005Z,3.67
2022-09-23T09:35:18.879Z,4.07
2022-09-23T09:37:48.459Z,5.45
2022-09-23T09:40:17.561Z,5.97
2022-09-23T09:42:49.791Z,4.50
2022-09-23T09:46:05.905Z,4.97
2022-09-23T09:51:22.284Z,3.47
2022-09-23T09:53:52.609Z,6.95
2022-09-23T09:56:33.494Z,3.80
2022-09-23T09:59:08.502Z,3.47
2022-09-23T10:01:36.617Z,3.60
2022-09-23T10:04:19.955Z,4.40
2022-09-23T10:07:12.392Z,4.05
2022-09-23T10:09:43.156Z,3.85
2022-09-23T10:12:21.401Z,3.50
2022-09-23T10:14:51.988Z,3.55
2022-09-23T10:17:24.566Z,22.17
2022-09-23T10:20:00.900Z,5.45
2022-09-23T10:22:45.441Z,2.92
2022-09-23T10:25:30.673Z,3.50
2022-09-23T10:28:03.607Z,3.03
2022-09-23T10:30:39.152Z,5.32
2022-09-23T10:33:28.177Z,3.08
2022-09-23T10:35:57.604Z,3.85
2022-09-23T10:38:25.172Z,3.38
2022-09-23T10:41:12.424Z,3.10
2022-09-23T10:44:17.381Z,4.82
2022-09-23T10:47:00.557Z,5.13
2022-09-23T10:49:53.278Z,4.78
2022-09-23T10:52:49.225Z,4.25
2022-09-23T10:55:18.649Z,5.15
2022-09-23T10:57:45.433Z,3.10
2022-09-23T11:00:27.894Z,2.97
2022-09-23T11:03:14.895Z,3.13
2022-09-23T11:06:04.156Z,2.50
2022-09-23T11:09:00.420Z,3.58
2022-09-23T11:11:51.421Z,2.40
2022-09-23T11:15:10.160Z,2.97
2022-09-23T11:18:01.215Z,8.55
2022-09-23T11:21:07.273Z,8.23
2022-09-23T11:23:40.876Z,3.70
2022-09-23T11:26:33.155Z,3.53
2022-09-23T11:29:29.257Z,3.92
2022-09-23T11:32:10.410Z,4.97
2022-09-23T11:34:45.925Z,3.88
2022-09-23T11:37:19.088Z,4.25
2022-09-23T11:40:01.548Z,3.20
2022-09-23T11:42:35.079Z,2.30
2022-09-23T11:45:09.893Z,4.80
2022-09-23T11:47:45.945Z,3.50
2022-09-23T11:50:44.614Z,4.43
2022-09-23T11:53:22.613Z,2.70
2022-09-23T11:55:58.397Z,4.20
2022-09-23T12:01:29.927Z,3.92
2022-09-23T12:04:13.854Z,5.00
2022-09-23T12:07:07.780Z,3.88
2022-09-23T12:09:58.421Z,2.53
2022-09-23T12:12:48.777Z,5.68
2022-09-23T12:15:30.374Z,5.75
2022-09-23T12:18:05.810Z,2.28
2022-09-23T12:21:01.614Z,3.00
2022-09-23T12:23:46.337Z,3.20
2022-09-23T12:26:23.156Z,2.53
2022-09-23T12:28:52.990Z,3.10
2022-09-23T12:31:30.557Z,3.13
2022-09-23T12:34:00.423Z,3.10
2022-09-23T12:36:34.696Z,3.33
2022-09-23T12:39:13.936Z,2.65
2022-09-23T12:41:43.916Z,3.22
2022-09-23T12:44:28.700Z,3.70
2022-09-23T12:47:28.134Z,2.83
2022-09-23T12:49:56.845Z,2.88
2022-09-23T12:52:33.666Z,2.50
2022-09-23T12:55:24.648Z,3.60
2022-09-23T12:57:51.256Z,2.85
2022-09-23T13:00:25.966Z,2.40
2022-09-23T13:03:18.347Z,2.63
2022-09-23T13:06:11.948Z,2.42
2022-09-23T13:08:41.811Z,4.80
2022-09-23T13:11:25.125Z,2.30
2022-09-23T13:13:52.469Z,4.18
2022-09-23T13:16:33.434Z,2.90
2022-09-23T13:19:43.095Z,2.00
2022-09-23T13:22:11.268Z,2.38
2022-09-23T13:24:45.410Z,2.03
2022-09-23T13:27:17.675Z,3.78
2022-09-23T13:29:51.941Z,2.53
2022-09-23T13:32:20.886Z,3.00
2022-09-23T13:34:58.537Z,5.03
2022-09-23T13:37:41.369Z,3.95
2022-09-23T13:40:17.441Z,2.88
2022-09-23T13:42:47.383Z,2.50
2022-09-23T13:45:20.999Z,3.15
2022-09-23T13:47:49.669Z,3.17
2022-09-23T13:50:22.805Z,4.07
2022-09-23T13:52:58.073Z,3.17
2022-09-23T13:55:33.802Z,2.50
2022-09-23T13:58:04.356Z,6.63
2022-09-23T14:03:16.303Z,3.33
2022-09-23T14:05:43.970Z,2.95
2022-09-23T14:08:10.886Z,3.97
2022-09-23T14:10:42.964Z,3.92
2022-09-23T14:13:17.151Z,2.83
2022-09-23T14:15:45.258Z,3.13
2022-09-23T14:18:26.373Z,3.75
2022-09-23T14:20:53.012Z,3.33
2022-09-23T14:23:19.937Z,4.45
2022-09-23T14:25:47.698Z,7.45
2022-09-23T14:28:17.161Z,3.42
2022-09-23T14:30:46.393Z,3.25
2022-09-23T14:33:20.030Z,2.80
2022-09-23T14:35:53.757Z,4.28
2022-09-23T14:38:46.195Z,2.33
2022-09-23T14:41:22.117Z,4.65
2022-09-23T14:43:55.224Z,2.85
2022-09-23T14:46:24.800Z,2.97
2022-09-23T14:49:16.653Z,3.40
2022-09-23T14:51:55.999Z,5.30
2022-09-23T14:54:40.415Z,6.13
2022-09-23T14:57:22.197Z,4.63
2022-09-23T14:59:56.111Z,5.10
2022-09-23T15:02:37.793Z,2.90
2022-09-23T15:05:10.491Z,4.65
2022-09-23T15:07:39.106Z,4.18
2022-09-23T15:10:33.264Z,3.33
2022-09-23T15:13:27.582Z,4.18
2022-09-23T15:15:55.904Z,4.18
2022-09-23T15:18:26.730Z,3.83
2022-09-23T15:21:01.168Z,4.70
2022-09-23T15:23:51.882Z,3.20
2022-09-23T15:26:21.475Z,2.95
2022-09-23T15:28:50.306Z,4.45
2022-09-23T15:31:18.920Z,3.92
2022-09-23T15:33:49.571Z,4.75
2022-09-23T15:36:26.137Z,5.53
2022-09-23T15:38:53.883Z,4.70
2022-09-23T15:41:24.197Z,3.40
2022-09-23T15:43:51.613Z,23.35
2022-09-23T15:46:25.990Z,4.15
2022-09-23T15:49:09.713Z,4.10
2022-09-23T15:51:45.576Z,3.05
2022-09-23T15:54:12.611Z,5.63
2022-09-23T15:56:40.415Z,5.53
2022-09-23T15:59:07.438Z,4.40
2022-09-23T16:01:36.804Z,3.28
2022-09-23T16:04:05.279Z,3.60
2022-09-23T16:06:36.071Z,3.60
2022-09-23T16:09:02.924Z,3.47
2022-09-23T16:11:33.981Z,3.58
2022-09-23T16:14:01.413Z,3.47
2022-09-23T16:16:29.576Z,3.25
2022-09-23T16:18:58.207Z,3.83
2022-09-23T16:21:27.657Z,4.18
2022-09-23T16:23:56.016Z,5.18
2022-09-23T16:26:28.205Z,3.53
2022-09-23T16:28:56.905Z,4.22
2022-09-23T16:31:25.729Z,4.82
2022-09-23T16:33:53.387Z,4.43
2022-09-23T16:36:35.843Z,7.43
2022-09-23T16:39:06.097Z,5.03
2022-09-23T16:41:33.344Z,5.63
2022-09-23T16:44:02.147Z,8.88
2022-09-23T16:46:35.193Z,7.90
2022-09-23T16:49:02.341Z,12.05
2022-09-23T16:51:35.700Z,5.50
2022-09-23T16:54:06.428Z,6.43
2022-09-23T16:56:33.267Z,6.13
2022-09-23T16:59:01.436Z,4.07
2022-09-23T17:01:47.669Z,5.25
2022-09-23T17:04:17.037Z,4.25
2022-09-23T17:06:52.168Z,5.53
2022-09-23T17:09:21.316Z,4.28
2022-09-23T17:12:05.311Z,4.90
2022-09-23T17:14:32.001Z,6.75
2022-09-23T17:16:59.151Z,4.80
2022-09-23T17:19:25.884Z,4.85
2022-09-23T17:21:53.613Z,4.90
2022-09-23T17:24:20.309Z,9.50
2022-09-23T17:26:52.015Z,15.65
2022-09-23T17:29:19.770Z,16.30
2022-09-23T17:31:46.823Z,8.40
2022-09-23T17:34:14.207Z,6.63
2022-09-23T17:36:41.502Z,8.40
2022-09-23T17:39:08.322Z,8.80
2022-09-23T17:41:35.186Z,14.32
2022-09-23T17:44:02.082Z,7.93
2022-09-23T17:46:30.273Z,6.20
2022-09-23T17:48:57.211Z,6.57
2022-09-23T17:51:25.632Z,11.10
2022-09-23T17:53:52.818Z,7.60
2022-09-23T17:56:21.042Z,5.30
2022-09-23T17:58:49.607Z,7.40
2022-09-23T18:01:24.183Z,7.60
2022-09-23T18:03:59.384Z,13.18
2022-09-23T18:06:35.584Z,8.68
2022-09-23T18:09:04.425Z,8.50
2022-09-23T18:11:36.860Z,7.53
2022-09-23T18:14:18.730Z,12.40
2022-09-23T18:16:47.976Z,9.77
2022-09-23T18:19:17.158Z,18.20
2022-09-23T18:21:46.830Z,10.48
2022-09-23T18:24:33.124Z,17.48
2022-09-23T18:27:01.213Z,17.65
2022-09-23T18:29:28.778Z,12.57
2022-09-23T18:31:55.812Z,13.93
2022-09-23T18:34:23.142Z,17.00
2022-09-23T18:36:56.131Z,8.35
2022-09-23T18:39:23.044Z,10.35
2022-09-23T18:41:49.666Z,23.23
2022-09-23T18:44:24.442Z,15.30
2022-09-23T18:46:53.800Z,15.95
2022-09-23T18:49:39.008Z,16.00
2022-09-23T18:52:05.701Z,36.90
2022-09-23T18:54:32.462Z,16.15
2022-09-23T18:57:00.709Z,14.98
2022-09-23T18:59:29.315Z,16.27
2022-09-23T19:01:57.035Z,9.35
2022-09-23T19:04:26.239Z,10.32
2022-09-23T19:06:56.545Z,24.73
2022-09-23T19:09:24.324Z,22.05
2022-09-23T19:11:52.747Z,10.57
2022-09-23T19:14:20.054Z,10.57
2022-09-23T19:16:49.297Z,13.80
2022-09-23T19:19:16.279Z,19.48
2022-09-23T19:21:43.353Z,12.15
2022-09-23T19:24:14.416Z,18.10
2022-09-23T19:26:42.104Z,12.52
2022-09-23T19:29:14.712Z,11.32
2022-09-23T19:31:42.459Z,53.45
2022-09-23T19:34:18.474Z,19.27
2022-09-23T19:36:47.729Z,20.42
2022-09-23T19:39:19.977Z,16.40
2022-09-23T19:41:47.131Z,16.58
2022-09-23T19:44:17.141Z,12.27
2022-09-23T19:46:45.912Z,11.32
2022-09-23T19:49:13.040Z,15.38
2022-09-23T19:51:40.292Z,17.65
2022-09-23T19:54:07.944Z,17.83
2022-09-23T19:56:35.789Z,29.63
2022-09-23T19:59:04.615Z,11.98
2022-09-23T20:01:32.140Z,14.98
2022-09-23T20:03:59.857Z,37.13
2022-09-23T20:06:42.988Z,41.95
2022-09-23T20:09:10.007Z,12.82
2022-09-23T20:11:38.971Z,13.73
2022-09-23T20:14:06.566Z,18.77
2022-09-23T20:16:37.270Z,13.23
2022-09-23T20:19:05.572Z,13.18
2022-09-23T20:21:33.561Z,10.85
2022-09-23T20:24:00.931Z,11.30
2022-09-23T20:26:48.643Z,14.43
2022-09-23T20:29:15.225Z,11.50
2022-09-23T20:31:42.181Z,10.93
2022-09-23T20:34:10.977Z,11.77
2022-09-23T20:36:40.882Z,12.15
2022-09-23T20:39:09.711Z,10.50
2022-09-23T20:41:37.835Z,12.63
2022-09-23T20:44:07.712Z,20.77
2022-09-23T20:46:34.693Z,12.68
2022-09-23T20:49:02.075Z,13.32
2022-09-23T20:51:29.491Z,11.13
2022-09-23T20:53:56.008Z,14.88
2022-09-23T20:56:23.444Z,12.38
2022-09-23T20:58:52.657Z,16.15
2022-09-23T21:01:19.373Z,14.63
2022-09-23T21:03:48.829Z,12.82
2022-09-23T21:06:17.426Z,12.20
2022-09-23T21:08:44.714Z,10.48
2022-09-23T21:11:14.895Z,12.98
2022-09-23T21:13:46.935Z,18.45
2022-09-23T21:16:16.264Z,14.90
2022-09-23T21:18:48.883Z,11.13
2022-09-23T21:21:17.430Z,15.63
2022-09-23T21:23:44.357Z,12.50
2022-09-23T21:26:18.202Z,15.82
2022-09-23T21:28:51.085Z,11.93
2022-09-23T21:31:30.488Z,11.38
2022-09-23T21:34:19.272Z,14.93
2022-09-23T21:36:48.079Z,10.52
2022-09-23T21:39:15.080Z,12.95
2022-09-23T21:41:42.483Z,13.15
2022-09-23T21:44:09.235Z,8.88
2022-09-23T21:46:39.647Z,10.60
2022-09-23T21:49:06.447Z,11.68
2022-09-23T21:51:38.598Z,10.20
2022-09-23T21:54:06.160Z,12.10
2022-09-23T21:56:37.861Z,9.40
2022-09-23T21:59:07.861Z,13.38
2022-09-23T22:01:37.205Z,10.65
2022-09-23T22:04:14.413Z,9.75
2022-09-23T22:09:13.761Z,9.43
2022-09-23T22:11:59.534Z,9.85
2022-09-23T22:14:26.750Z,8.30
2022-09-23T22:17:00.445Z,9.50
2022-09-23T22:19:34.844Z,8.30
2022-09-23T22:22:05.783Z,8.93
2022-09-23T22:24:32.805Z,10.60
2022-09-23T22:26:59.888Z,10.48
2022-09-23T22:29:45.139Z,8.93
2022-09-23T22:32:30.820Z,10.07
2022-09-23T22:34:59.928Z,9.38
2022-09-23T22:37:30.669Z,10.07
2022-09-23T22:39:58.448Z,9.82
2022-09-23T22:42:26.449Z,10.90
2022-09-23T22:44:56.811Z,9.02
2022-09-23T22:47:24.646Z,9.68
2022-09-23T22:49:55.018Z,10.43
2022-09-23T22:52:24.773Z,14.13
2022-09-23T22:54:55.515Z,11.45
2022-09-23T22:57:24.434Z,8.93
2022-09-23T22:59:53.404Z,8.40
2022-09-23T23:02:24.701Z,7.93
2022-09-23T23:04:52.186Z,11.07
2022-09-23T23:07:21.508Z,7.93
2022-09-23T23:09:52.676Z,9.10
2022-09-23T23:12:21.285Z,7.45
2022-09-23T23:14:50.900Z,14.25
2022-09-23T23:17:19.584Z,11.75
2022-09-23T23:19:47.785Z,9.38
2022-09-23T23:22:14.776Z,7.90
2022-09-23T23:24:42.143Z,8.52
2022-09-23T23:27:12.833Z,9.88
2022-09-23T23:29:40.055Z,10.40
2022-09-23T23:32:07.795Z,14.63
2022-09-23T23:34:34.480Z,8.95
2022-09-23T23:37:02.279Z,8.90
2022-09-23T23:39:29.754Z,8.57
2022-09-23T23:41:58.547Z,9.63
2022-09-23T23:44:27.629Z,8.95
2022-09-23T23:46:55.443Z,10.45
2022-09-23T23:49:23.169Z,7.40
2022-09-23T23:51:50.617Z,8.50
2022-09-23T23:54:17.288Z,9.35
2022-09-23T23:56:44.390Z,9.32
2022-09-23T23:59:11.568Z,8.98
